createdAt,value
2016-09-30T00:00:09.305Z,17.12
2016-09-30T00:01:09.324Z,17.15
2016-09-30T00:02:09.374Z,17.16
2016-09-30T00:03:09.388Z,17.15
2016-09-30T00:04:09.507Z,17.12
2016-09-30T00:05:09.424Z,17.12
2016-09-30T00:06:09.460Z,16.98
2016-09-30T00:07:09.482Z,17.07
2016-09-30T00:08:09.511Z,17.08
2016-09-30T00:09:09.540Z,16.93
2016-09-30T00:10:10.061Z,17
2016-09-30T00:11:09.584Z,16.94
2016-09-30T00:12:09.605Z,16.89
2016-09-30T00:13:09.624Z,16.96
2016-09-30T00:14:09.652Z,17.08
2016-09-30T00:15:09.686Z,17.12
2016-09-30T00:16:09.707Z,17.06
2016-09-30T00:17:24.654Z,17.01
2016-09-30T00:18:24.676Z,17.11
2016-09-30T00:19:09.780Z,17.12
2016-09-30T00:20:09.803Z,17.06
2016-09-30T00:21:09.832Z,17.07
2016-09-30T00:22:09.855Z,17.06
2016-09-30T00:23:25.050Z,16.93
2016-09-30T00:24:09.927Z,16.93
2016-09-30T00:25:09.935Z,16.94
2016-09-30T00:27:09.981Z,16.81
2016-09-30T00:28:10.007Z,16.56
2016-09-30T00:29:10.028Z,16.49
2016-09-30T00:30:24.981Z,16.58
2016-09-30T00:31:10.085Z,16.58
2016-09-30T00:32:10.104Z,16.67
2016-09-30T00:33:25.051Z,16.7
2016-09-30T00:35:10.176Z,16.67
2016-09-30T00:36:10.208Z,16.49
2016-09-30T00:37:10.235Z,16.49
2016-09-30T00:38:10.259Z,16.43
2016-09-30T00:39:10.280Z,16.49
2016-09-30T00:40:10.350Z,16.5
2016-09-30T00:41:10.330Z,16.39
2016-09-30T00:42:10.356Z,16.39
2016-09-30T00:43:10.379Z,16.48
2016-09-30T00:44:10.406Z,16.48
2016-09-30T00:45:10.427Z,16.49
2016-09-30T00:46:10.450Z,16.49
2016-09-30T00:47:10.536Z,16.5
2016-09-30T00:48:10.504Z,16.56
2016-09-30T00:49:25.453Z,16.58
2016-09-30T00:50:25.474Z,16.7
2016-09-30T00:51:10.585Z,16.66
2016-09-30T00:52:10.601Z,16.67
2016-09-30T00:53:10.625Z,16.66
2016-09-30T00:54:10.650Z,16.7
2016-09-30T00:55:10.674Z,16.68
2016-09-30T00:56:10.704Z,16.6
2016-09-30T00:57:10.726Z,16.5
2016-09-30T00:58:10.754Z,16.41
2016-09-30T00:59:10.774Z,16.45
2016-09-30T01:00:10.798Z,16.41
2016-09-30T01:02:11.105Z,16.43
2016-09-30T01:03:10.875Z,16.48
2016-09-30T01:04:10.903Z,16.5
2016-09-30T01:05:25.846Z,16.53
2016-09-30T01:06:10.950Z,16.52
2016-09-30T01:07:10.977Z,16.5
2016-09-30T01:08:11.050Z,16.53
2016-09-30T01:09:11.022Z,16.56
2016-09-30T01:10:11.092Z,16.56
2016-09-30T01:11:11.073Z,16.66
2016-09-30T01:12:11.096Z,16.67
2016-09-30T01:13:11.124Z,16.7
2016-09-30T01:14:26.076Z,16.68
2016-09-30T01:15:11.171Z,16.67
2016-09-30T01:17:11.222Z,16.81
2016-09-30T01:18:11.252Z,16.73
2016-09-30T01:19:11.280Z,16.73
2016-09-30T01:20:26.217Z,16.81
2016-09-30T01:21:11.623Z,16.78
2016-09-30T01:22:11.344Z,16.68
2016-09-30T01:23:11.369Z,16.79
2016-09-30T01:24:11.401Z,16.82
2016-09-30T01:25:11.420Z,16.83
2016-09-30T01:26:11.695Z,16.86
2016-09-30T01:27:11.469Z,16.82
2016-09-30T01:30:11.800Z,16.67
2016-09-30T01:31:11.564Z,16.64
2016-09-30T01:32:11.846Z,16.61
2016-09-30T01:33:11.618Z,16.67
2016-09-30T01:34:11.643Z,16.68
2016-09-30T01:35:11.662Z,16.67
2016-09-30T01:36:11.694Z,16.67
2016-09-30T01:37:11.718Z,16.79
2016-09-30T01:38:11.743Z,16.75
2016-09-30T01:39:11.773Z,16.82
2016-09-30T01:40:11.790Z,16.82
2016-09-30T01:41:11.815Z,16.66
2016-09-30T01:42:11.838Z,16.75
2016-09-30T01:43:11.867Z,16.67
2016-09-30T01:45:11.922Z,16.64
2016-09-30T01:46:11.995Z,16.64
2016-09-30T01:47:11.962Z,16.63
2016-09-30T01:48:12.088Z,16.75
2016-09-30T01:49:26.938Z,16.76
2016-09-30T01:50:12.038Z,16.81
2016-09-30T01:51:12.066Z,16.82
2016-09-30T01:52:27.011Z,16.75
2016-09-30T01:53:12.116Z,16.78
2016-09-30T01:54:12.138Z,16.85
2016-09-30T01:55:12.165Z,16.85
2016-09-30T01:56:12.189Z,16.79
2016-09-30T01:57:12.207Z,16.86
2016-09-30T01:58:12.238Z,16.86
2016-09-30T01:59:12.266Z,16.79
2016-09-30T02:00:12.286Z,16.85
2016-09-30T02:01:12.312Z,16.82
2016-09-30T02:03:12.359Z,16.85
2016-09-30T02:04:27.311Z,16.83
2016-09-30T02:05:12.413Z,16.88
2016-09-30T02:06:12.436Z,16.89
2016-09-30T02:07:12.463Z,16.86
2016-09-30T02:08:27.513Z,16.81
2016-09-30T02:09:12.564Z,16.83
2016-09-30T02:10:12.531Z,16.85
2016-09-30T02:11:12.811Z,16.83
2016-09-30T02:12:12.585Z,16.86
2016-09-30T02:13:12.613Z,16.86
2016-09-30T02:14:12.633Z,16.83
2016-09-30T02:15:12.660Z,16.86
2016-09-30T02:17:12.709Z,16.85
2016-09-30T02:18:12.729Z,16.82
2016-09-30T02:19:13.003Z,16.86
2016-09-30T02:20:12.788Z,16.82
2016-09-30T02:21:27.733Z,16.96
2016-09-30T02:22:12.833Z,17.01
2016-09-30T02:23:12.913Z,16.93
2016-09-30T02:24:27.859Z,16.83
2016-09-30T02:25:12.912Z,16.85
2016-09-30T02:26:12.979Z,16.86
2016-09-30T02:27:12.965Z,16.82
2016-09-30T02:28:12.985Z,16.88
2016-09-30T02:29:13.007Z,16.83
2016-09-30T02:30:13.033Z,16.83
2016-09-30T02:31:13.054Z,16.97
2016-09-30T02:32:13.078Z,16.96
2016-09-30T02:33:13.410Z,17.01
2016-09-30T02:34:13.127Z,17.08
2016-09-30T02:35:13.150Z,17.03
2016-09-30T02:36:28.106Z,16.94
2016-09-30T02:37:13.204Z,17.04
2016-09-30T02:38:13.282Z,17.01
2016-09-30T02:39:13.254Z,17
2016-09-30T02:40:28.200Z,17
2016-09-30T02:41:13.306Z,17
2016-09-30T02:42:13.336Z,17.08
2016-09-30T02:43:13.351Z,17.04
2016-09-30T02:44:13.376Z,16.98
2016-09-30T02:45:13.401Z,17.15
2016-09-30T02:46:13.433Z,17.01
2016-09-30T02:47:13.698Z,17.15
2016-09-30T02:49:13.496Z,17.12
2016-09-30T02:50:13.828Z,17.06
2016-09-30T02:51:13.548Z,17.06
2016-09-30T02:52:13.573Z,17.01
2016-09-30T02:54:28.548Z,17.11
2016-09-30T02:55:29.580Z,17.06
2016-09-30T02:56:13.686Z,17.06
2016-09-30T02:57:13.695Z,17.12
2016-09-30T02:58:13.729Z,17.11
2016-09-30T02:59:13.746Z,17.14
2016-09-30T03:00:13.777Z,17.18
2016-09-30T03:01:13.798Z,17.16
2016-09-30T03:02:13.824Z,17.12
2016-09-30T03:03:14.148Z,17.18
2016-09-30T03:04:13.874Z,17.16
2016-09-30T03:05:13.901Z,17.18
2016-09-30T03:06:14.172Z,17.23
2016-09-30T03:07:13.943Z,17.22
2016-09-30T03:08:13.970Z,17.22
2016-09-30T03:09:28.922Z,17.21
2016-09-30T03:10:14.028Z,17.18
2016-09-30T03:11:14.052Z,17.18
2016-09-30T03:12:14.072Z,17.18
2016-09-30T03:13:14.096Z,17.21
2016-09-30T03:14:14.123Z,17.25
2016-09-30T03:15:14.144Z,17.16
2016-09-30T03:16:14.233Z,17.19
2016-09-30T03:17:14.194Z,17.16
2016-09-30T03:18:14.218Z,17.22
2016-09-30T03:19:14.249Z,17.25
2016-09-30T03:20:14.283Z,17.23
2016-09-30T03:21:14.296Z,17.18
2016-09-30T03:22:14.317Z,17.16
2016-09-30T03:23:14.344Z,17.18
2016-09-30T03:24:14.619Z,17.19
2016-09-30T03:25:14.394Z,17.23
2016-09-30T03:26:14.420Z,17.22
2016-09-30T03:27:29.368Z,17.3
2016-09-30T03:28:14.522Z,17.16
2016-09-30T03:29:14.499Z,17.21
2016-09-30T03:30:14.516Z,17.25
2016-09-30T03:31:14.550Z,17.16
2016-09-30T03:32:14.579Z,17.19
2016-09-30T03:33:14.592Z,17.19
2016-09-30T03:34:14.621Z,17.23
2016-09-30T03:35:14.646Z,17.18
2016-09-30T03:37:14.693Z,17.18
2016-09-30T03:38:14.715Z,17.21
2016-09-30T03:39:14.791Z,17.22
2016-09-30T03:40:14.769Z,17.16
2016-09-30T03:41:14.840Z,17.19
2016-09-30T03:42:14.860Z,17.19
2016-09-30T03:43:29.761Z,17.18
2016-09-30T03:44:14.914Z,17.19
2016-09-30T03:45:14.895Z,17.25
2016-09-30T03:46:14.914Z,17.16
2016-09-30T03:47:14.938Z,17.15
2016-09-30T03:48:14.968Z,17.22
2016-09-30T03:49:14.988Z,17.15
2016-09-30T03:50:15.014Z,17.22
2016-09-30T03:51:15.038Z,17.26
2016-09-30T03:52:15.064Z,17.22
2016-09-30T03:53:15.082Z,17.15
2016-09-30T03:54:15.111Z,17.23
2016-09-30T03:55:15.134Z,17.25
2016-09-30T03:56:15.160Z,17.21
2016-09-30T03:57:15.182Z,17.12
2016-09-30T03:58:15.256Z,17.21
2016-09-30T03:59:30.164Z,17.22
2016-09-30T04:00:15.254Z,17.25
2016-09-30T04:01:15.286Z,17.21
2016-09-30T04:02:15.313Z,17.16
2016-09-30T04:03:15.338Z,17.18
2016-09-30T04:04:15.363Z,17.16
2016-09-30T04:05:15.433Z,17.21
2016-09-30T04:06:15.413Z,17.16
2016-09-30T04:09:15.499Z,17.19
2016-09-30T04:10:15.508Z,17.28
2016-09-30T04:11:15.529Z,17.25
2016-09-30T04:12:30.483Z,17.25
2016-09-30T04:13:15.582Z,17.26
2016-09-30T04:14:15.609Z,17.23
2016-09-30T04:15:30.556Z,17.22
2016-09-30T04:16:15.656Z,17.19
2016-09-30T04:17:15.687Z,17.22
2016-09-30T04:18:15.704Z,17.21
2016-09-30T04:19:15.981Z,17.21
2016-09-30T04:20:15.761Z,17.22
2016-09-30T04:21:15.775Z,17.15
2016-09-30T04:22:15.809Z,17.23
2016-09-30T04:23:15.834Z,17.23
2016-09-30T04:24:15.863Z,17.19
2016-09-30T04:25:15.879Z,17.14
2016-09-30T04:26:15.904Z,17.14
2016-09-30T04:27:15.927Z,17.19
2016-09-30T04:28:15.957Z,17.11
2016-09-30T04:29:15.982Z,17.22
2016-09-30T04:30:30.929Z,17.15
2016-09-30T04:31:16.080Z,17.15
2016-09-30T04:32:16.053Z,17.19
2016-09-30T04:33:16.084Z,17.15
2016-09-30T04:34:16.102Z,17.26
2016-09-30T04:35:16.431Z,17.22
2016-09-30T04:36:16.149Z,17.21
2016-09-30T04:37:16.181Z,17.21
2016-09-30T04:38:16.206Z,17.08
2016-09-30T04:39:16.227Z,17.03
2016-09-30T04:40:16.250Z,17.11
2016-09-30T04:41:16.274Z,17.19
2016-09-30T04:42:16.302Z,17.12
2016-09-30T04:43:16.637Z,17.15
2016-09-30T04:44:16.349Z,17.12
2016-09-30T04:45:16.380Z,17.16
2016-09-30T04:46:16.402Z,17.03
2016-09-30T04:47:16.421Z,17.16
2016-09-30T04:48:16.451Z,17.07
2016-09-30T04:49:16.473Z,17.15
2016-09-30T04:50:16.503Z,17.08
2016-09-30T04:51:16.521Z,17.08
2016-09-30T04:52:31.529Z,17.11
2016-09-30T04:53:16.578Z,17.14
2016-09-30T04:54:16.902Z,17.03
2016-09-30T04:55:16.634Z,17.06
2016-09-30T04:56:16.648Z,17.11
2016-09-30T04:57:16.675Z,17.11
2016-09-30T04:58:16.692Z,17.01
2016-09-30T04:59:16.721Z,17.12
2016-09-30T05:00:16.740Z,17.15
2016-09-30T05:01:16.780Z,17.07
2016-09-30T05:02:31.722Z,17.14
2016-09-30T05:03:16.820Z,17.11
2016-09-30T05:04:16.845Z,17.18
2016-09-30T05:05:16.868Z,17.08
2016-09-30T05:06:16.905Z,17.14
2016-09-30T05:07:16.921Z,17.16
2016-09-30T05:08:16.946Z,17.11
2016-09-30T05:09:16.967Z,17.19
2016-09-30T05:10:16.995Z,17.15
2016-09-30T05:11:17.267Z,17.18
2016-09-30T05:12:17.041Z,17.15
2016-09-30T05:13:17.067Z,17.12
2016-09-30T05:14:17.091Z,17.08
2016-09-30T05:15:17.123Z,17.12
2016-09-30T05:16:17.147Z,17.14
2016-09-30T05:17:17.170Z,17.14
2016-09-30T05:18:32.120Z,17.14
2016-09-30T05:19:17.216Z,17.18
2016-09-30T05:20:17.491Z,17.21
2016-09-30T05:22:17.291Z,17.15
2016-09-30T05:23:17.323Z,17.16
2016-09-30T05:24:17.343Z,17.16
2016-09-30T05:25:17.367Z,17.14
2016-09-30T05:26:17.388Z,17.16
2016-09-30T05:27:17.414Z,17.12
2016-09-30T05:28:17.442Z,17.11
2016-09-30T05:29:17.714Z,17.08
2016-09-30T05:30:17.497Z,17.18
2016-09-30T05:31:17.508Z,17.12
2016-09-30T05:32:17.556Z,17.15
2016-09-30T05:33:32.486Z,17.03
2016-09-30T05:34:32.510Z,17.12
2016-09-30T05:35:32.533Z,17.14
2016-09-30T05:36:17.652Z,17.11
2016-09-30T05:37:17.715Z,17.19
2016-09-30T05:38:17.689Z,17.04
2016-09-30T05:39:17.710Z,17.06
2016-09-30T05:40:17.740Z,17.16
2016-09-30T05:41:17.762Z,17.15
2016-09-30T05:42:18.032Z,17.23
2016-09-30T05:43:17.810Z,17.23
2016-09-30T05:44:17.833Z,17.22
2016-09-30T05:45:17.860Z,17.19
2016-09-30T05:46:18.184Z,17.22
2016-09-30T05:47:17.904Z,17.19
2016-09-30T05:48:17.938Z,17.14
2016-09-30T05:50:32.910Z,17.14
2016-09-30T05:51:18.010Z,17.15
2016-09-30T05:52:18.037Z,17.07
2016-09-30T05:53:18.304Z,17.14
2016-09-30T05:54:18.086Z,17.16
2016-09-30T05:55:18.107Z,17.16
2016-09-30T05:57:18.150Z,17.07
2016-09-30T05:58:18.186Z,17.04
2016-09-30T05:59:18.459Z,17.16
2016-09-30T06:00:18.229Z,17.16
2016-09-30T06:01:18.261Z,17.18
2016-09-30T06:03:18.300Z,17.19
2016-09-30T06:04:18.331Z,17.23
2016-09-30T06:05:33.282Z,17.21
2016-09-30T06:07:18.472Z,17.21
2016-09-30T06:08:18.435Z,17.28
2016-09-30T06:09:18.763Z,17.22
2016-09-30T06:10:18.477Z,17.18
2016-09-30T06:11:18.503Z,17.21
2016-09-30T06:12:18.528Z,17.19
2016-09-30T06:13:18.555Z,17.21
2016-09-30T06:14:18.577Z,17.22
2016-09-30T06:15:18.598Z,17.21
2016-09-30T06:16:18.628Z,17.18
2016-09-30T06:17:18.654Z,17.16
2016-09-30T06:18:18.689Z,17.19
2016-09-30T06:19:18.711Z,17.21
2016-09-30T06:20:18.729Z,17.19
2016-09-30T06:21:18.756Z,17.31
2016-09-30T06:22:18.773Z,17.18
2016-09-30T06:23:18.798Z,17.21
2016-09-30T06:24:18.824Z,17.23
2016-09-30T06:25:18.848Z,17.28
2016-09-30T06:26:18.875Z,17.26
2016-09-30T06:27:18.910Z,17.25
2016-09-30T06:28:18.926Z,17.19
2016-09-30T06:29:18.948Z,17.22
2016-09-30T06:30:18.980Z,17.19
2016-09-30T06:31:18.993Z,17.18
2016-09-30T06:32:19.019Z,17.18
2016-09-30T06:33:19.049Z,17.21
2016-09-30T06:34:19.073Z,17.18
2016-09-30T06:35:19.095Z,17.26
2016-09-30T06:36:19.125Z,17.22
2016-09-30T06:37:34.074Z,17.25
2016-09-30T06:38:19.171Z,17.22
2016-09-30T06:39:19.196Z,17.31
2016-09-30T06:41:19.249Z,17.34
2016-09-30T06:42:19.275Z,17.36
2016-09-30T06:43:19.302Z,17.38
2016-09-30T06:44:19.323Z,17.4
2016-09-30T06:45:19.349Z,17.49
2016-09-30T06:46:19.381Z,17.51
2016-09-30T06:47:19.392Z,17.52
2016-09-30T06:49:34.371Z,17.55
2016-09-30T06:50:19.471Z,17.64
2016-09-30T06:51:19.495Z,17.62
2016-09-30T06:52:19.518Z,17.58
2016-09-30T06:53:34.471Z,17.63
2016-09-30T06:54:19.588Z,17.55
2016-09-30T06:55:34.514Z,17.66
2016-09-30T06:56:19.862Z,17.74
2016-09-30T06:57:19.648Z,17.79
2016-09-30T06:58:19.673Z,17.87
2016-09-30T06:59:19.696Z,17.9
2016-09-30T07:00:20.023Z,17.84
2016-09-30T07:01:19.945Z,17.89
2016-09-30T07:02:19.766Z,17.84
2016-09-30T07:03:19.790Z,17.92
2016-09-30T07:05:34.768Z,17.9
2016-09-30T07:06:19.865Z,17.99
2016-09-30T07:07:20.143Z,17.9
2016-09-30T07:08:34.841Z,17.96
2016-09-30T07:09:34.865Z,17.97
2016-09-30T07:10:19.987Z,17.9
2016-09-30T07:11:19.993Z,17.86
2016-09-30T07:12:20.016Z,17.9
2016-09-30T07:13:20.061Z,17.89
2016-09-30T07:14:20.063Z,17.78
2016-09-30T07:15:20.098Z,17.75
2016-09-30T07:16:20.114Z,17.74
2016-09-30T07:17:20.141Z,17.81
2016-09-30T07:18:20.160Z,17.66
2016-09-30T07:19:20.195Z,17.82
2016-09-30T07:20:20.225Z,17.84
2016-09-30T07:21:20.246Z,17.89
2016-09-30T07:22:20.265Z,17.96
2016-09-30T07:23:20.293Z,18.08
2016-09-30T07:25:35.264Z,18.27
2016-09-30T07:26:20.600Z,18.23
2016-09-30T07:27:20.393Z,18.26
2016-09-30T07:28:20.423Z,18.27
2016-09-30T07:29:20.441Z,18.25
2016-09-30T07:30:20.473Z,18.29
2016-09-30T07:31:20.608Z,18.18
2016-09-30T07:32:20.516Z,18.14
2016-09-30T07:33:20.538Z,18.08
2016-09-30T07:34:20.566Z,18.08
2016-09-30T07:36:20.616Z,18.12
2016-09-30T07:37:35.567Z,18.05
2016-09-30T07:38:20.666Z,18.1
2016-09-30T07:39:20.689Z,18.07
2016-09-30T07:40:35.639Z,18.15
2016-09-30T07:41:20.994Z,18.11
2016-09-30T07:42:20.769Z,18.07
2016-09-30T07:43:20.792Z,18.14
2016-09-30T07:44:20.818Z,17.97
2016-09-30T07:45:20.843Z,17.96
2016-09-30T07:46:20.865Z,17.95
2016-09-30T07:47:20.890Z,17.89
2016-09-30T07:48:20.923Z,17.89
2016-09-30T07:49:20.946Z,17.82
2016-09-30T07:50:20.972Z,17.81
2016-09-30T07:51:21.000Z,17.71
2016-09-30T07:52:35.943Z,17.66
2016-09-30T07:53:21.046Z,17.7
2016-09-30T07:54:21.072Z,17.75
2016-09-30T07:55:21.092Z,17.82
2016-09-30T07:56:21.117Z,17.75
2016-09-30T07:57:21.143Z,17.68
2016-09-30T07:58:21.169Z,17.71
2016-09-30T07:59:21.192Z,17.68
2016-09-30T08:00:21.217Z,17.72
2016-09-30T08:01:21.243Z,17.71
2016-09-30T08:02:21.268Z,17.71
2016-09-30T08:03:21.300Z,17.74
2016-09-30T08:04:21.324Z,17.72
2016-09-30T08:05:21.342Z,17.78
2016-09-30T08:06:36.296Z,17.89
2016-09-30T08:07:21.392Z,18.02
2016-09-30T08:08:21.421Z,17.96
2016-09-30T08:09:36.365Z,18.1
2016-09-30T08:10:21.469Z,18.1
2016-09-30T08:11:21.498Z,18.12
2016-09-30T08:12:36.438Z,18.15
2016-09-30T08:13:21.543Z,18.11
2016-09-30T08:14:21.579Z,18.1
2016-09-30T08:15:21.699Z,18.1
2016-09-30T08:16:21.625Z,18.12
2016-09-30T08:17:21.643Z,18.1
2016-09-30T08:18:21.672Z,18.14
2016-09-30T08:19:21.696Z,18.1
2016-09-30T08:20:21.719Z,18.02
2016-09-30T08:21:21.746Z,18.12
2016-09-30T08:23:21.789Z,18.26
2016-09-30T08:24:22.122Z,18.21
2016-09-30T08:25:21.851Z,18.41
2016-09-30T08:26:21.878Z,18.37
2016-09-30T08:27:21.890Z,18.42
2016-09-30T08:28:36.849Z,18.51
2016-09-30T08:29:21.949Z,18.54
2016-09-30T08:30:21.977Z,18.67
2016-09-30T08:31:21.995Z,18.67
2016-09-30T08:32:22.021Z,18.87
2016-09-30T08:33:22.295Z,18.85
2016-09-30T08:34:22.075Z,18.98
2016-09-30T08:35:22.098Z,19.21
2016-09-30T08:36:22.121Z,19.29
2016-09-30T08:37:22.164Z,19.61
2016-09-30T08:38:22.171Z,19.63
2016-09-30T08:39:37.123Z,19.73
2016-09-30T08:40:22.224Z,19.83
2016-09-30T08:41:22.245Z,19.83
2016-09-30T08:42:22.273Z,19.83
2016-09-30T08:43:22.305Z,19.83
2016-09-30T08:44:37.243Z,19.77
2016-09-30T08:46:22.376Z,19.66
2016-09-30T08:47:22.406Z,19.63
2016-09-30T08:48:22.438Z,19.66
2016-09-30T08:49:22.454Z,19.77
2016-09-30T08:50:22.484Z,19.86
2016-09-30T08:51:22.505Z,19.99
2016-09-30T08:52:22.533Z,20.17
2016-09-30T08:53:22.554Z,20.23
2016-09-30T08:54:22.581Z,20.28
2016-09-30T08:56:22.631Z,20.01
2016-09-30T08:57:22.665Z,19.98
2016-09-30T08:58:22.688Z,20.14
2016-09-30T08:59:22.971Z,20.2
2016-09-30T09:00:37.668Z,20.2
2016-09-30T09:01:22.759Z,20.21
2016-09-30T09:02:22.788Z,20.24
2016-09-30T09:03:22.821Z,20.31
2016-09-30T09:04:22.843Z,20.23
2016-09-30T09:05:22.871Z,20.31
2016-09-30T09:06:22.890Z,20.43
2016-09-30T09:07:22.920Z,20.77
2016-09-30T09:08:22.949Z,20.92
2016-09-30T09:09:22.975Z,21.01
2016-09-30T09:11:23.023Z,21.28
2016-09-30T09:13:23.101Z,21.46
2016-09-30T09:14:23.109Z,21.77
2016-09-30T09:15:38.060Z,21.75
2016-09-30T09:16:23.163Z,21.8
2016-09-30T09:17:23.185Z,21.58
2016-09-30T09:18:23.213Z,21.62
2016-09-30T09:19:23.243Z,21.8
2016-09-30T09:20:23.269Z,22.15
2016-09-30T09:21:23.290Z,22.4
2016-09-30T09:22:23.318Z,22.6
2016-09-30T09:25:23.406Z,22.85
2016-09-30T09:26:23.435Z,22.92
2016-09-30T09:27:23.463Z,23.09
2016-09-30T09:28:23.484Z,23.38
2016-09-30T09:29:23.617Z,23.35
2016-09-30T09:31:23.572Z,23.53
2016-09-30T09:32:38.520Z,23.69
2016-09-30T09:33:23.644Z,23.39
2016-09-30T09:34:23.662Z,23.2
2016-09-30T09:35:23.680Z,22.9
2016-09-30T09:36:23.707Z,22.95
2016-09-30T09:37:23.742Z,22.95
2016-09-30T09:38:24.396Z,22.95
2016-09-30T09:39:23.792Z,22.88
2016-09-30T09:40:23.831Z,22.49
2016-09-30T09:41:23.851Z,22.54
2016-09-30T09:42:23.887Z,22.52
2016-09-30T09:43:23.901Z,22.57
2016-09-30T09:46:23.997Z,22.57
2016-09-30T09:47:38.937Z,22.3
2016-09-30T09:48:24.042Z,22.3
2016-09-30T09:49:24.078Z,22.3
2016-09-30T09:50:24.099Z,22.14
2016-09-30T09:51:24.130Z,22.12
2016-09-30T09:52:24.157Z,22.03
2016-09-30T09:53:24.180Z,22.1
2016-09-30T09:54:24.214Z,22.27
2016-09-30T09:55:24.239Z,22.28
2016-09-30T09:56:24.286Z,22.12
2016-09-30T09:57:24.292Z,22.06
2016-09-30T09:58:24.318Z,22.06
2016-09-30T09:59:24.357Z,22.02
2016-09-30T10:00:24.376Z,21.72
2016-09-30T10:01:24.404Z,21.64
2016-09-30T10:02:24.436Z,21.83
2016-09-30T10:03:39.383Z,21.83
2016-09-30T10:04:24.494Z,21.88
2016-09-30T10:05:24.522Z,21.91
2016-09-30T10:06:24.847Z,21.88
2016-09-30T10:07:24.569Z,21.79
2016-09-30T10:08:24.596Z,21.71
2016-09-30T10:09:24.625Z,21.88
2016-09-30T10:10:24.649Z,22.09
2016-09-30T10:12:24.712Z,22.17
2016-09-30T10:13:24.738Z,22.27
2016-09-30T10:14:39.690Z,22.18
2016-09-30T10:15:25.041Z,22.14
2016-09-30T10:16:39.743Z,21.96
2016-09-30T10:17:24.849Z,21.98
2016-09-30T10:18:24.873Z,21.92
2016-09-30T10:19:39.820Z,21.88
2016-09-30T10:20:24.924Z,21.9
2016-09-30T10:21:24.954Z,21.96
2016-09-30T10:22:24.984Z,21.91
2016-09-30T10:23:25.015Z,21.9
2016-09-30T10:24:25.038Z,21.94
2016-09-30T10:25:25.066Z,21.69
2016-09-30T10:26:25.094Z,21.56
2016-09-30T10:27:25.116Z,21.5
2016-09-30T10:29:25.171Z,21.77
2016-09-30T10:30:25.200Z,21.86
2016-09-30T10:31:25.528Z,21.91
2016-09-30T10:32:25.255Z,21.9
2016-09-30T10:33:25.280Z,21.83
2016-09-30T10:34:25.321Z,22.03
2016-09-30T10:35:40.259Z,22.09
2016-09-30T10:36:25.363Z,22.05
2016-09-30T10:37:25.392Z,21.84
2016-09-30T10:38:25.417Z,21.62
2016-09-30T10:39:25.440Z,21.71
2016-09-30T10:40:25.474Z,21.58
2016-09-30T10:41:25.502Z,21.49
2016-09-30T10:42:25.526Z,21.46
2016-09-30T10:43:25.553Z,21.38
2016-09-30T10:44:25.578Z,21.34
2016-09-30T10:45:25.909Z,21.47
2016-09-30T10:46:25.633Z,21.52
2016-09-30T10:47:40.586Z,21.46
2016-09-30T10:48:25.684Z,21.49
2016-09-30T10:49:25.713Z,21.42
2016-09-30T10:50:40.670Z,21.34
2016-09-30T10:51:25.772Z,21.5
2016-09-30T10:52:25.797Z,21.49
2016-09-30T10:53:25.822Z,21.44
2016-09-30T10:54:25.854Z,21.49
2016-09-30T10:55:25.877Z,21.46
2016-09-30T10:56:25.906Z,21.54
2016-09-30T10:57:25.937Z,21.38
2016-09-30T10:58:25.960Z,21.46
2016-09-30T10:59:26.001Z,21.46
2016-09-30T11:00:26.015Z,21.53
2016-09-30T11:01:26.040Z,21.35
2016-09-30T11:02:26.065Z,21.35
2016-09-30T11:03:26.093Z,21.42
2016-09-30T11:04:26.120Z,21.21
2016-09-30T11:05:26.150Z,21.13
2016-09-30T11:06:26.171Z,21.12
2016-09-30T11:07:26.197Z,21.31
2016-09-30T11:08:26.230Z,21.14
2016-09-30T11:09:26.259Z,21.19
2016-09-30T11:10:26.285Z,21.14
2016-09-30T11:11:26.308Z,20.94
2016-09-30T11:12:26.338Z,20.97
2016-09-30T11:14:26.384Z,20.99
2016-09-30T11:15:26.415Z,20.97
2016-09-30T11:16:26.442Z,20.79
2016-09-30T11:18:26.496Z,20.69
2016-09-30T11:19:41.449Z,20.57
2016-09-30T11:20:26.802Z,20.55
2016-09-30T11:21:26.584Z,20.61
2016-09-30T11:22:41.529Z,20.52
2016-09-30T11:23:26.632Z,20.47
2016-09-30T11:24:26.660Z,20.39
2016-09-30T11:25:26.687Z,20.5
2016-09-30T11:26:26.711Z,20.72
2016-09-30T11:27:26.737Z,20.84
2016-09-30T11:28:26.767Z,20.99
2016-09-30T11:29:26.805Z,21.1
2016-09-30T11:30:26.815Z,21.12
2016-09-30T11:31:26.849Z,21.21
2016-09-30T11:33:26.904Z,21.44
2016-09-30T11:34:41.850Z,21.59
2016-09-30T11:35:26.947Z,21.62
2016-09-30T11:36:41.903Z,21.52
2016-09-30T11:37:41.928Z,21.72
2016-09-30T11:38:41.953Z,21.56
2016-09-30T11:39:27.056Z,21.68
2016-09-30T11:40:27.095Z,21.72
2016-09-30T11:41:27.109Z,21.77
2016-09-30T11:42:27.141Z,21.88
2016-09-30T11:43:27.170Z,21.91
2016-09-30T11:44:27.196Z,21.83
2016-09-30T11:45:27.220Z,21.88
2016-09-30T11:46:27.248Z,21.84
2016-09-30T11:47:27.270Z,21.9
2016-09-30T11:48:27.299Z,21.94
2016-09-30T11:49:42.261Z,22
2016-09-30T11:50:27.353Z,21.91
2016-09-30T11:51:27.378Z,22.09
2016-09-30T11:52:27.411Z,22.33
2016-09-30T11:54:42.393Z,22.79
2016-09-30T11:55:27.485Z,22.9
2016-09-30T11:56:27.516Z,23.01
2016-09-30T11:57:27.544Z,23.13
2016-09-30T11:58:27.570Z,23.01
2016-09-30T11:59:27.603Z,23.12
2016-09-30T12:00:27.624Z,23.07
2016-09-30T12:01:27.654Z,23.07
2016-09-30T12:02:27.686Z,23.01
2016-09-30T12:03:27.711Z,23.02
2016-09-30T12:04:27.735Z,23.13
2016-09-30T12:05:27.777Z,23.28
2016-09-30T12:06:27.789Z,23.15
2016-09-30T12:07:27.823Z,23.35
2016-09-30T12:08:27.846Z,23.36
2016-09-30T12:09:27.876Z,23.31
2016-09-30T12:10:42.821Z,23.38
2016-09-30T12:11:42.845Z,23.35
2016-09-30T12:12:27.949Z,23.48
2016-09-30T12:13:27.985Z,23.35
2016-09-30T12:14:28.003Z,23.48
2016-09-30T12:15:28.038Z,23.43
2016-09-30T12:16:28.064Z,23.53
2016-09-30T12:17:28.088Z,23.58
2016-09-30T12:18:28.123Z,23.53
2016-09-30T12:19:28.151Z,23.33
2016-09-30T12:20:28.172Z,23.4
2016-09-30T12:21:28.196Z,23.28
2016-09-30T12:22:43.157Z,23.32
2016-09-30T12:23:28.260Z,23.32
2016-09-30T12:24:28.280Z,23.38
2016-09-30T12:25:43.234Z,23.36
2016-09-30T12:26:28.334Z,23.33
2016-09-30T12:27:28.370Z,23.33
2016-09-30T12:28:28.390Z,23.33
2016-09-30T12:29:28.417Z,23.42
2016-09-30T12:30:28.702Z,23.46
2016-09-30T12:31:28.472Z,23.55
2016-09-30T12:32:28.505Z,23.51
2016-09-30T12:33:28.533Z,23.57
2016-09-30T12:34:28.564Z,23.8
2016-09-30T12:35:28.583Z,23.87
2016-09-30T12:36:28.962Z,24.03
2016-09-30T12:37:43.565Z,24.08
2016-09-30T12:38:28.664Z,24.12
2016-09-30T12:39:28.693Z,23.84
2016-09-30T12:40:28.730Z,23.78
2016-09-30T12:41:28.750Z,23.51
2016-09-30T12:42:43.700Z,23.46
2016-09-30T12:43:28.804Z,23.5
2016-09-30T12:44:28.831Z,23.54
2016-09-30T12:45:28.858Z,23.63
2016-09-30T12:46:28.893Z,23.66
2016-09-30T12:47:28.915Z,23.88
2016-09-30T12:48:29.745Z,23.79
2016-09-30T12:50:29.001Z,23.63
2016-09-30T12:51:43.956Z,23.46
2016-09-30T12:52:29.318Z,23.46
2016-09-30T12:53:29.086Z,23.23
2016-09-30T12:54:29.109Z,23.36
2016-09-30T12:55:29.137Z,23.48
2016-09-30T12:56:29.166Z,23.35
2016-09-30T12:57:44.121Z,23.25
2016-09-30T12:58:29.222Z,23.17
2016-09-30T12:59:29.254Z,23.22
2016-09-30T13:01:29.313Z,23.15
2016-09-30T13:02:29.332Z,23.28
2016-09-30T13:03:29.359Z,23.22
2016-09-30T13:04:29.381Z,23.16
2016-09-30T13:05:29.414Z,23.01
2016-09-30T13:06:29.443Z,23.04
2016-09-30T13:07:29.471Z,23
2016-09-30T13:08:29.497Z,23
2016-09-30T13:09:29.526Z,23.01
2016-09-30T13:10:29.551Z,22.97
2016-09-30T13:11:29.575Z,22.76
2016-09-30T13:12:44.530Z,22.76
2016-09-30T13:13:44.559Z,22.82
2016-09-30T13:14:29.666Z,22.72
2016-09-30T13:15:29.694Z,22.67
2016-09-30T13:16:29.737Z,22.75
2016-09-30T13:17:29.750Z,22.68
2016-09-30T13:18:29.772Z,22.73
2016-09-30T13:19:29.801Z,22.64
2016-09-30T13:20:29.832Z,22.64
2016-09-30T13:21:29.857Z,22.58
2016-09-30T13:22:29.891Z,22.52
2016-09-30T13:23:29.909Z,22.43
2016-09-30T13:24:30.053Z,22.39
2016-09-30T13:25:29.972Z,22.39
2016-09-30T13:26:29.994Z,22.27
2016-09-30T13:27:30.020Z,22.39
2016-09-30T13:28:30.047Z,22.31
2016-09-30T13:29:44.995Z,22.25
2016-09-30T13:30:30.101Z,22.25
2016-09-30T13:31:30.120Z,22.25
2016-09-30T13:32:30.154Z,22.22
2016-09-30T13:33:30.181Z,22.14
2016-09-30T13:34:30.208Z,22.07
2016-09-30T13:35:30.791Z,21.98
2016-09-30T13:36:30.259Z,21.83